Time;durP1;ratioP1;P1;durP2;ratioP2;P2;SDS_P1;SDS_P2;PMS_P1;PMS_P2;Temp;Humidity;BMP_temperature;BMP_pressure;BME280_temperature;BME280_humidity;BME280_pressure;Samples;Min_cycle;Max_cycle;Signal;HPM_P1;HPM_P2
2021/08/29 00:00:22;;;;;;;8.45;5.18;;;;;;;13.46;100.00;101604.56;4940877;28;20058;-82
2021/08/29 00:02:48;;;;;;;9.38;5.28;;;;;;;13.37;100.00;101595.75;4957082;28;20045;-79
2021/08/29 00:05:14;;;;;;;11.48;5.60;;;;;;;13.42;100.00;101601.41;4955634;28;20034;-81
2021/08/29 00:07:39;;;;;;;8.02;5.03;;;;;;;13.51;100.00;101605.00;4940129;28;20034;-81
2021/08/29 00:10:06;;;;;;;9.20;5.00;;;;;;;13.49;100.00;101606.94;4972545;28;20121;-80
2021/08/29 00:12:31;;;;;;;9.05;5.10;;;;;;;13.49;100.00;101601.66;4940180;28;20780;-82
2021/08/29 00:14:57;;;;;;;8.18;4.47;;;;;;;13.46;100.00;101606.41;4956120;28;20096;-81
2021/08/29 00:17:24;;;;;;;5.95;4.30;;;;;;;13.41;100.00;101607.66;4940790;28;20057;-81
2021/08/29 00:19:51;;;;;;;11.65;4.80;;;;;;;13.49;100.00;101604.31;4971180;28;20034;-80
2021/08/29 00:22:17;;;;;;;13.00;3.85;;;;;;;13.42;100.00;101606.66;4952906;28;20042;-80
2021/08/29 00:24:43;;;;;;;11.85;5.05;;;;;;;13.41;100.00;101597.13;4950996;28;20042;-80
2021/08/29 00:27:09;;;;;;;7.72;3.90;;;;;;;13.36;100.00;101591.44;4940816;28;20084;-80
2021/08/29 00:29:37;;;;;;;7.97;3.85;;;;;;;13.42;100.00;101601.41;4955735;28;20034;-80
2021/08/29 00:32:03;;;;;;;10.95;4.55;;;;;;;13.39;100.00;101601.72;4955488;28;20042;-82
2021/08/29 00:34:29;;;;;;;8.00;3.90;;;;;;;13.35;100.00;101595.03;4966816;28;20117;-80
2021/08/29 00:36:55;;;;;;;6.53;4.07;;;;;;;13.41;100.00;101593.63;4937382;28;20042;-79
2021/08/29 00:39:20;;;;;;;9.13;3.92;;;;;;;13.40;100.00;101592.00;4938758;28;20129;-79
2021/08/29 00:41:46;;;;;;;5.85;3.63;;;;;;;13.40;100.00;101594.63;4937717;28;20330;-80
2021/08/29 00:44:13;;;;;;;8.20;3.95;;;;;;;13.44;100.00;101596.81;4940538;28;20045;-80
2021/08/29 00:46:39;;;;;;;7.50;3.40;;;;;;;13.40;100.00;101586.72;4956299;28;20713;-81
2021/08/29 00:49:05;;;;;;;9.32;3.75;;;;;;;13.39;100.00;101590.31;4940335;28;20044;-80
2021/08/29 00:51:34;;;;;;;8.80;3.85;;;;;;;13.39;100.00;101593.81;4971731;28;20043;-81
2021/08/29 00:54:00;;;;;;;8.45;3.63;;;;;;;13.35;100.00;101587.13;4940876;28;20034;-83
2021/08/29 00:56:27;;;;;;;5.97;3.15;;;;;;;13.43;100.00;101586.44;4940916;28;20065;-80
2021/08/29 00:58:55;;;;;;;7.90;3.50;;;;;;;13.35;100.00;101584.50;4956548;28;20251;-82
2021/08/29 01:01:34;;;;;;;7.22;3.50;;;;;;;13.38;100.00;101578.13;4973003;28;20097;-80
2021/08/29 01:04:05;;;;;;;10.38;3.33;;;;;;;13.37;100.00;101574.69;4988580;28;20096;-82
2021/08/29 01:06:45;;;;;;;8.48;3.55;;;;;;;13.37;100.00;101569.41;4969917;28;20125;-81
2021/08/29 01:09:17;;;;;;;8.68;3.20;;;;;;;13.38;100.00;101575.50;4972110;28;20117;-80
2021/08/29 01:11:51;;;;;;;11.10;3.67;;;;;;;13.39;100.00;101574.50;4973186;28;20145;-82
2021/08/29 01:14:26;;;;;;;5.68;3.40;;;;;;;13.43;100.00;101574.09;4957713;28;20045;-81
2021/08/29 01:16:54;;;;;;;6.28;3.60;;;;;;;13.34;100.00;101572.31;4972711;28;20184;-83
2021/08/29 01:19:44;;;;;;;5.93;3.85;;;;;;;13.32;100.00;101568.19;4938981;28;20127;-81
2021/08/29 01:22:10;;;;;;;6.68;3.13;;;;;;;13.36;100.00;101572.19;4938791;28;20050;-80
2021/08/29 01:24:38;;;;;;;5.00;3.63;;;;;;;13.33;100.00;101564.56;4956230;28;20047;-81
2021/08/29 01:27:08;;;;;;;7.95;3.60;;;;;;;13.36;100.00;101566.91;4939566;28;20039;-80
2021/08/29 01:29:34;;;;;;;6.45;3.97;;;;;;;13.32;100.00;101566.38;4940146;28;20050;-81
2021/08/29 01:32:11;;;;;;;11.05;3.80;;;;;;;13.27;100.00;101552.75;4953790;28;20049;-81
2021/08/29 01:34:44;;;;;;;8.80;3.53;;;;;;;13.22;100.00;101555.84;4988201;28;20523;-80
2021/08/29 01:37:21;;;;;;;8.73;3.80;;;;;;;13.29;100.00;101560.53;4949456;28;20520;-82
2021/08/29 01:39:48;;;;;;;4.80;3.60;;;;;;;13.24;100.00;101561.78;4970313;28;20073;-82
2021/08/29 01:42:20;;;;;;;5.53;4.05;;;;;;;13.30;100.00;101564.78;4955048;28;20037;-80
2021/08/29 01:44:46;;;;;;;7.32;3.78;;;;;;;13.31;100.00;101564.69;4956954;28;20062;-82
2021/08/29 01:47:15;;;;;;;9.30;3.78;;;;;;;13.30;100.00;101560.41;4972470;28;20045;-81
2021/08/29 01:49:41;;;;;;;11.45;3.72;;;;;;;13.30;100.00;101560.41;4956211;28;20385;-81
2021/08/29 01:52:06;;;;;;;6.25;3.67;;;;;;;13.28;100.00;101561.47;4972669;28;20038;-81
2021/08/29 01:54:42;;;;;;;8.18;4.25;;;;;;;13.31;100.00;101561.22;4973669;28;20145;-81
2021/08/29 01:57:31;;;;;;;10.82;4.55;;;;;;;13.34;100.00;101569.69;4969252;28;20428;-81
2021/08/29 02:00:05;;;;;;;5.63;3.72;;;;;;;13.34;100.00;101559.13;4945769;28;20064;-81
2021/08/29 02:02:38;;;;;;;9.07;4.13;;;;;;;13.26;100.00;101545.84;4971467;28;20148;-82
2021/08/29 02:05:05;;;;;;;8.70;4.10;;;;;;;13.34;100.00;101561.78;4945960;28;20132;-83
2021/08/29 02:07:40;;;;;;;7.75;3.70;;;;;;;13.34;100.00;101563.59;4977798;28;20412;-81
2021/08/29 02:10:19;;;;;;;7.57;3.75;;;;;;;13.36;100.00;101559.00;4967920;28;20038;-82
2021/08/29 02:12:53;;;;;;;8.80;4.28;;;;;;;13.26;100.00;101545.84;4944851;28;20037;-81
2021/08/29 02:15:37;;;;;;;9.30;4.20;;;;;;;13.30;100.00;101560.41;4944147;28;20062;-83
2021/08/29 02:18:07;;;;;;;5.97;3.90;;;;;;;13.30;100.00;101556.88;4969402;28;20047;-82
2021/08/29 02:20:34;;;;;;;8.65;4.18;;;;;;;13.30;100.00;101559.53;4938351;28;20042;-81
2021/08/29 02:23:01;;;;;;;8.38;3.75;;;;;;;13.32;100.00;101558.47;4958715;28;20046;-81
2021/08/29 02:25:27;;;;;;;7.82;4.22;;;;;;;13.30;100.00;101554.25;4959152;28;20030;-82
2021/08/29 02:27:53;;;;;;;10.43;4.18;;;;;;;13.34;100.00;101555.69;4958946;28;20076;-81
2021/08/29 02:30:20;;;;;;;5.90;4.45;;;;;;;13.29;100.00;101558.72;4943262;28;20045;-82
2021/08/29 02:32:51;;;;;;;6.97;4.07;;;;;;;13.30;100.00;101547.22;4961189;28;20776;-80
2021/08/29 02:35:17;;;;;;;7.03;4.03;;;;;;;13.32;100.00;101547.09;4943438;28;20100;-81
2021/08/29 02:37:49;;;;;;;11.10;4.78;;;;;;;13.32;100.00;101541.81;4941317;28;20034;-81
2021/08/29 02:40:17;;;;;;;9.52;4.78;;;;;;;13.27;100.00;101550.13;4936106;28;20130;-80
2021/08/29 02:42:44;;;;;;;8.45;4.10;;;;;;;13.29;100.00;101536.81;4945253;28;20031;-83
2021/08/29 02:45:12;;;;;;;8.45;4.18;;;;;;;13.28;100.00;101541.25;4956211;28;20046;-82
2021/08/29 02:47:38;;;;;;;8.80;3.95;;;;;;;13.28;100.00;101545.66;4947518;28;20247;-82
2021/08/29 02:50:06;;;;;;;6.25;4.30;;;;;;;13.29;100.00;101547.34;4973753;28;20030;-83
2021/08/29 02:52:33;;;;;;;8.13;4.13;;;;;;;13.24;100.00;101535.44;4968588;28;20457;-83
2021/08/29 02:55:02;;;;;;;7.95;4.00;;;;;;;13.22;100.00;101541.81;4944670;28;20081;-82
2021/08/29 02:57:33;;;;;;;8.80;4.50;;;;;;;13.32;100.00;101540.00;4953503;28;20034;-82
2021/08/29 03:00:19;;;;;;;10.38;4.35;;;;;;;13.24;100.00;101527.53;4974614;28;20045;-82
2021/08/29 03:02:47;;;;;;;7.40;4.05;;;;;;;13.25;100.00;101531.81;4960744;28;20026;-84
2021/08/29 03:05:13;;;;;;;7.03;4.13;;;;;;;13.24;100.00;101540.72;4960528;28;20077;-82
2021/08/29 03:07:41;;;;;;;8.93;4.47;;;;;;;13.19;100.00;101535.03;4942811;28;20456;-81
2021/08/29 03:10:07;;;;;;;9.95;4.53;;;;;;;13.23;100.00;101533.75;4944409;28;20030;-82
2021/08/29 03:12:33;;;;;;;6.00;4.10;;;;;;;13.24;100.00;101535.44;4975468;28;20044;-82
2021/08/29 03:15:18;;;;;;;10.68;4.05;;;;;;;13.21;100.00;101527.81;4985448;28;20054;-83
2021/08/29 03:17:44;;;;;;;6.95;4.13;;;;;;;13.21;100.00;101535.72;4955957;28;20062;-84
2021/08/29 03:20:10;;;;;;;7.03;3.97;;;;;;;13.24;100.00;101530.16;4965416;28;20157;-82
2021/08/29 03:22:46;;;;;;;7.25;3.72;;;;;;;13.21;100.00;101519.91;4960433;28;20034;-84
2021/08/29 03:25:12;;;;;;;5.72;3.63;;;;;;;13.18;100.00;101514.91;4944359;28;20034;-83
2021/08/29 03:27:38;;;;;;;11.77;4.07;;;;;;;13.20;100.00;101514.78;4960685;28;20469;-82
2021/08/29 03:30:06;;;;;;;8.27;3.70;;;;;;;13.22;100.00;101518.09;4944191;28;20045;-83
2021/08/29 03:32:32;;;;;;;6.68;3.63;;;;;;;13.26;100.00;101516.88;4959921;28;20073;-82
2021/08/29 03:35:03;;;;;;;8.20;3.17;;;;;;;13.26;100.00;101519.50;4957015;28;20121;-83
2021/08/29 03:37:33;;;;;;;9.32;3.70;;;;;;;13.20;100.00;101517.41;4959901;28;20034;-84
2021/08/29 03:40:04;;;;;;;6.57;3.83;;;;;;;13.22;100.00;101518.09;4944380;28;20057;-83
2021/08/29 03:42:33;;;;;;;9.68;3.85;;;;;;;13.17;100.00;101515.09;4945262;28;20084;-83
2021/08/29 03:45:04;;;;;;;9.20;3.88;;;;;;;13.17;100.00;101500.09;4949882;28;20050;-84
2021/08/29 03:47:31;;;;;;;6.40;3.20;;;;;;;13.24;100.00;101511.72;4957778;28;20043;-81
2021/08/29 03:49:57;;;;;;;5.50;3.00;;;;;;;13.13;100.00;101496.09;4941939;28;20543;-83
2021/08/29 03:52:29;;;;;;;5.80;3.67;;;;;;;13.24;100.00;101511.72;4973509;28;20042;-81
2021/08/29 03:55:15;;;;;;;6.00;3.75;;;;;;;13.28;100.00;101509.63;4953362;28;20122;-82
2021/08/29 03:57:42;;;;;;;8.55;4.10;;;;;;;13.25;100.00;101516.00;4944928;28;20493;-82
2021/08/29 04:00:08;;;;;;;7.35;3.97;;;;;;;13.27;100.00;101502.69;4948659;28;20042;-82
2021/08/29 04:02:41;;;;;;;7.50;4.18;;;;;;;13.28;100.00;101511.41;4981639;28;20121;-81
2021/08/29 04:05:09;;;;;;;5.40;3.65;;;;;;;13.26;100.00;101503.69;4975769;28;20033;-82
2021/08/29 04:07:37;;;;;;;8.63;4.22;;;;;;;13.30;100.00;101505.09;4976472;28;20581;-82
2021/08/29 04:10:07;;;;;;;5.70;3.67;;;;;;;13.31;100.00;101509.34;4944528;28;20030;-83
2021/08/29 04:12:37;;;;;;;9.60;3.50;;;;;;;13.21;100.00;101503.28;4976543;28;20073;-83
2021/08/29 04:15:24;;;;;;;6.93;3.85;;;;;;;13.30;100.00;101517.38;4937738;28;20049;-83
2021/08/29 04:17:50;;;;;;;9.20;4.25;;;;;;;13.25;100.00;101515.19;4959266;28;20728;-81
2021/08/29 04:20:17;;;;;;;6.03;4.30;;;;;;;13.23;100.00;101509.22;4959887;28;20043;-82
2021/08/29 04:22:43;;;;;;;7.50;4.18;;;;;;;13.34;100.00;101524.06;4976158;28;20488;-82
2021/08/29 04:25:11;;;;;;;6.07;4.22;;;;;;;13.29;100.00;101521.81;4945845;28;20093;-82
2021/08/29 04:27:37;;;;;;;7.18;4.63;;;;;;;13.27;100.00;101520.31;4976074;28;20888;-82
2021/08/29 04:30:03;;;;;;;7.85;4.18;;;;;;;13.23;100.00;101506.59;4942884;28;20203;-85
2021/08/29 04:32:31;;;;;;;6.45;4.25;;;;;;;13.31;100.00;101524.34;4959568;28;20089;-81
2021/08/29 04:34:59;;;;;;;7.90;4.53;;;;;;;13.28;100.00;101516.69;4975471;28;20034;-81
2021/08/29 04:37:35;;;;;;;5.25;4.03;;;;;;;13.27;100.00;101520.31;4960564;28;20038;-80
2021/08/29 04:40:08;;;;;;;;;;;;;;;13.30;100.00;101527.91;4971796;28;20062;-80
2021/08/29 04:42:42;;;;;;;9.35;4.63;;;;;;;13.26;100.00;101516.88;4944650;28;19913;-81
2021/08/29 04:45:09;;;;;;;7.13;4.55;;;;;;;13.22;100.00;101512.84;4943288;28;20033;-82
2021/08/29 04:47:35;;;;;;;9.27;4.88;;;;;;;13.23;100.00;101517.97;4958831;28;20062;-82
2021/08/29 04:50:02;;;;;;;6.05;4.63;;;;;;;13.32;100.00;101526.03;4942906;28;20081;-80
2021/08/29 04:52:29;;;;;;;8.13;4.95;;;;;;;13.32;100.00;101516.31;4950234;28;20039;-80
2021/08/29 04:54:58;;;;;;;6.88;4.80;;;;;;;13.27;100.00;101522.94;4975456;28;20034;-80
2021/08/29 04:57:24;;;;;;;6.85;5.22;;;;;;;13.25;100.00;101520.44;4974128;28;20038;-80
2021/08/29 04:59:50;;;;;;;7.70;4.80;;;;;;;13.28;100.00;101521.97;4957836;28;20096;-80
2021/08/29 05:02:16;;;;;;;8.88;4.93;;;;;;;13.32;100.00;101523.38;4990904;28;20034;-81
2021/08/29 05:04:42;;;;;;;7.45;5.13;;;;;;;13.33;100.00;101511.84;4939592;28;20034;-80
2021/08/29 05:07:10;;;;;;;9.80;5.18;;;;;;;13.32;100.00;101524.22;4973702;28;20038;-83
2021/08/29 05:09:37;;;;;;;9.30;4.78;;;;;;;13.36;100.00;101524.75;4940178;28;20390;-80
2021/08/29 05:12:07;;;;;;;8.90;4.65;;;;;;;13.37;100.00;101521.97;4973670;28;20038;-80
2021/08/29 05:14:33;;;;;;;5.57;4.45;;;;;;;13.37;100.00;101514.06;4973655;28;20033;-80
2021/08/29 05:16:58;;;;;;;6.78;4.80;;;;;;;13.43;100.00;101526.66;4958092;28;20416;-79
2021/08/29 05:19:26;;;;;;;10.18;4.82;;;;;;;13.40;100.00;101529.56;4959899;28;20030;-80
2021/08/29 05:22:03;;;;;;;9.45;5.10;;;;;;;13.42;100.00;101527.63;4945333;28;20035;-79
2021/08/29 05:24:48;;;;;;;5.68;4.20;;;;;;;13.47;100.00;101531.59;4982437;28;20071;-81
2021/08/29 05:27:15;;;;;;;7.50;4.72;;;;;;;13.40;100.00;101516.38;4958895;28;20096;-81
2021/08/29 05:29:46;;;;;;;7.32;5.18;;;;;;;13.51;100.00;101531.19;4975777;28;20117;-80
2021/08/29 05:32:11;;;;;;;6.75;4.68;;;;;;;13.49;100.00;101519.97;4961805;28;20118;-80
2021/08/29 05:34:40;;;;;;;5.13;4.40;;;;;;;13.49;100.00;101527.88;4945521;28;20046;-80
2021/08/29 05:37:06;;;;;;;6.00;4.40;;;;;;;13.51;100.00;101527.72;4946696;28;20037;-80
2021/08/29 05:39:52;;;;;;;5.00;4.32;;;;;;;13.58;100.00;101528.78;4964002;28;20042;-81
2021/08/29 05:42:17;;;;;;;8.00;4.22;;;;;;;13.57;100.00;101527.13;4961498;28;20389;-81
2021/08/29 05:44:53;;;;;;;7.30;4.28;;;;;;;13.59;100.00;101528.63;4959497;28;20034;-81
2021/08/29 05:47:19;;;;;;;5.18;4.13;;;;;;;13.72;100.00;101535.38;4971736;28;20045;-82
2021/08/29 05:49:44;;;;;;;4.88;4.00;;;;;;;13.68;100.00;101541.94;4945432;28;20065;-80
2021/08/29 05:52:10;;;;;;;6.50;3.97;;;;;;;13.72;100.00;101538.84;4964954;28;20145;-81
2021/08/29 05:54:36;;;;;;;6.38;3.83;;;;;;;13.80;100.00;101535.47;4977998;28;20106;-81
2021/08/29 05:57:03;;;;;;;6.35;3.90;;;;;;;13.77;100.00;101536.59;4977704;28;20102;-81
2021/08/29 05:59:29;;;;;;;6.97;4.07;;;;;;;13.81;100.00;101531.88;4968957;28;20113;-81
2021/08/29 06:01:54;;;;;;;4.07;3.55;;;;;;;13.85;100.00;101538.50;4962068;28;20038;-80
2021/08/29 06:04:23;;;;;;;5.45;4.32;;;;;;;13.78;100.00;101526.88;4946060;28;20046;-81
2021/08/29 06:06:58;;;;;;;8.05;3.65;;;;;;;13.86;100.00;101534.03;4961713;28;20088;-79
2021/08/29 06:09:23;;;;;;;6.90;3.90;;;;;;;13.87;100.00;101538.34;4960733;28;20034;-81
2021/08/29 06:11:49;;;;;;;8.85;3.58;;;;;;;13.90;100.00;101535.41;4978330;28;20049;-81
2021/08/29 06:14:14;;;;;;;6.57;4.22;;;;;;;13.91;100.00;101529.16;4968303;28;20058;-81
2021/08/29 06:16:42;;;;;;;6.93;4.38;;;;;;;13.96;100.00;101534.81;4962935;28;20035;-80
2021/08/29 06:19:27;;;;;;;4.30;3.30;;;;;;;13.92;100.00;101530.81;4970504;28;20062;-81
2021/08/29 06:21:54;;;;;;;5.93;4.00;;;;;;;13.96;100.00;101526.91;4963367;28;20034;-81
2021/08/29 06:24:20;;;;;;;6.05;3.60;;;;;;;13.99;100.00;101530.09;4976881;28;20047;-81
2021/08/29 06:27:04;;;;;;;6.03;3.60;;;;;;;14.05;100.00;101533.91;4958764;28;20042;-81
2021/08/29 06:29:59;;;;;;;4.28;3.30;;;;;;;13.99;100.00;101527.44;4971520;28;20046;-80
2021/08/29 06:32:43;;;;;;;4.78;3.47;;;;;;;13.99;100.00;101539.78;4972826;28;21360;-81
2021/08/29 06:35:11;;;;;;;4.18;3.30;;;;;;;14.03;100.00;101530.59;4960649;28;20068;-81
2021/08/29 06:38:03;;;;;;;5.82;3.22;;;;;;;14.00;100.00;101533.53;4974865;28;20049;-81
2021/08/29 06:40:29;;;;;;;3.60;3.20;;;;;;;13.96;100.00;101530.38;4943745;28;20126;-81
2021/08/29 06:42:54;;;;;;;5.70;3.78;;;;;;;13.93;100.00;101533.28;4960360;28;20038;-80
2021/08/29 06:45:39;;;;;;;4.15;3.00;;;;;;;13.92;100.00;101529.00;4979855;28;20061;-82
2021/08/29 06:48:22;;;;;;;5.57;3.08;;;;;;;13.97;100.00;101532.00;4974822;28;20066;-82
2021/08/29 06:51:26;;;;;;;4.50;2.50;;;;;;;13.96;100.00;101533.00;4974702;28;20053;-80
2021/08/29 06:54:18;;;;;;;5.13;2.72;;;;;;;13.88;100.00;101527.66;4984130;28;20038;-82
2021/08/29 06:57:16;;;;;;;3.10;2.53;;;;;;;13.91;100.00;101532.63;4950112;28;20050;-82
2021/08/29 06:59:41;;;;;;;2.83;2.53;;;;;;;13.93;100.00;101522.75;4976729;28;20061;-82
2021/08/29 07:02:07;;;;;;;7.85;3.00;;;;;;;13.98;100.00;101514.41;4943922;28;20034;-82
2021/08/29 07:04:32;;;;;;;2.45;2.25;;;;;;;14.00;100.00;101523.81;4971050;28;20033;-83
2021/08/29 07:07:02;;;;;;;3.97;2.35;;;;;;;14.02;100.00;101528.94;4958362;28;20046;-81
2021/08/29 07:10:04;;;;;;;3.10;2.72;;;;;;;14.04;100.00;101516.44;4966851;28;20058;-80
2021/08/29 07:12:31;;;;;;;3.45;2.90;;;;;;;14.09;100.00;101518.59;4979482;28;20672;-81
2021/08/29 07:15:12;;;;;;;3.78;2.42;;;;;;;14.14;100.00;101522.44;4951230;28;20034;-83
2021/08/29 07:17:37;;;;;;;4.50;2.50;;;;;;;14.19;100.00;101511.47;4943205;28;20062;-83
2021/08/29 07:20:05;;;;;;;2.80;2.60;;;;;;;14.15;100.00;101524.13;4960662;28;20508;-83
2021/08/29 07:22:49;;;;;;;4.90;2.78;;;;;;;14.13;100.00;101527.91;4993813;28;20500;-81
2021/08/29 07:25:34;;;;;;;2.65;2.45;;;;;;;14.21;100.00;101531.41;4979866;28;20037;-83
2021/08/29 07:28:37;;;;;;;3.63;2.67;;;;;;;14.25;100.00;101523.22;4979833;28;20034;-82
2021/08/29 07:31:21;;;;;;;3.08;2.78;;;;;;;14.23;100.00;101523.34;4989400;28;20043;-83
2021/08/29 07:33:47;;;;;;;3.10;2.85;;;;;;;14.29;100.00;101530.66;4977811;28;20511;-82
2021/08/29 07:36:19;;;;;;;4.28;2.97;;;;;;;14.31;100.00;101531.34;4960753;28;20037;-82
2021/08/29 07:38:53;;;;;;;3.47;2.60;;;;;;;14.37;100.00;101530.75;4957643;28;20093;-80
2021/08/29 07:41:19;;;;;;;2.50;2.28;;;;;;;14.42;100.00;101532.91;4976285;28;20034;-84
2021/08/29 07:43:44;;;;;;;5.47;1.95;;;;;;;14.41;100.00;101528.63;4968721;28;20035;-82
2021/08/29 07:46:10;;;;;;;2.33;2.13;;;;;;;14.45;100.00;101526.50;4957704;28;20505;-80
2021/08/29 07:48:36;;;;;;;3.17;2.00;;;;;;;14.57;100.00;101535.88;4957352;28;20034;-83
2021/08/29 07:51:02;;;;;;;3.05;2.15;;;;;;;14.62;100.00;101541.53;4944750;28;20048;-81
2021/08/29 07:53:39;;;;;;;2.22;1.60;;;;;;;14.68;100.00;101540.09;4961737;28;20136;-81
2021/08/29 07:56:42;;;;;;;1.63;1.52;;;;;;;14.85;100.00;101535.75;4979451;28;20034;-82
2021/08/29 07:59:08;;;;;;;2.03;1.65;;;;;;;14.92;100.00;101537.63;4952068;28;20041;-81
2021/08/29 08:01:35;;;;;;;1.60;1.50;;;;;;;15.04;100.00;101543.47;4961300;28;20423;-82
2021/08/29 08:04:24;;;;;;;1.55;1.40;;;;;;;14.97;100.00;101531.84;4946228;28;20141;-81
2021/08/29 08:07:08;;;;;;;2.60;1.30;;;;;;;14.98;100.00;101549.38;4978380;28;20038;-84
2021/08/29 08:09:52;;;;;;;2.75;1.38;;;;;;;14.99;100.00;101541.28;4992327;28;20100;-81
2021/08/29 08:12:40;;;;;;;1.40;1.30;;;;;;;15.09;100.00;101546.47;4946178;28;20033;-84
2021/08/29 08:15:06;;;;;;;3.40;1.45;;;;;;;15.11;100.00;101551.59;4977420;28;20435;-82
2021/08/29 08:17:32;;;;;;;2.05;1.10;;;;;;;15.16;100.00;101552.78;4959964;28;20160;-80
2021/08/29 08:19:58;;;;;;;1.33;1.20;;;;;;;15.18;100.00;101545.53;4959889;28;20093;-79
2021/08/29 08:22:24;;;;;;;2.78;1.13;;;;;;;15.21;100.00;101546.19;4959666;28;20825;-81
2021/08/29 08:25:03;;;;;;;1.58;0.95;;;;;;;15.21;100.00;101543.56;4979252;28;20125;-80
2021/08/29 08:27:47;;;;;;;2.25;1.00;;;;;;;15.25;100.00;101553.63;4978714;28;20030;-82
2021/08/29 08:30:31;;;;;;;1.63;0.98;;;;;;;15.28;100.00;101537.47;4992766;28;20030;-81
2021/08/29 08:33:16;;;;;;;0.93;0.93;;;;;;;15.39;100.00;101544.31;4986361;28;20451;-82
2021/08/29 08:36:01;;;;;;;1.10;1.00;;;;;;;15.47;100.00;101548.81;4968068;28;20776;-81
2021/08/29 08:38:50;;;;;;;3.75;0.73;;;;;;;15.52;100.00;101546.47;4975198;28;20046;-79
2021/08/29 08:41:28;;;;;;;1.17;0.65;;;;;;;15.57;100.00;101542.38;4967557;28;20061;-81
2021/08/29 08:44:19;;;;;;;1.00;0.90;;;;;;;15.61;100.00;101542.88;4955247;28;20386;-82
2021/08/29 08:47:06;;;;;;;0.88;0.80;;;;;;;15.73;100.00;101543.44;4958859;28;20098;-80
2021/08/29 08:49:54;;;;;;;2.85;0.82;;;;;;;15.90;100.00;101547.00;4973490;28;20057;-82
2021/08/29 08:52:47;;;;;;;3.08;1.02;;;;;;;16.07;100.00;101553.16;4941214;28;20801;-82
2021/08/29 08:55:32;;;;;;;1.02;0.98;;;;;;;16.25;100.00;101553.81;4973601;28;20062;-80
2021/08/29 08:58:17;;;;;;;1.15;0.95;;;;;;;16.33;100.00;101559.13;4991624;28;20485;-83
2021/08/29 09:01:03;;;;;;;3.45;1.27;;;;;;;16.28;100.00;101553.50;4977081;28;20094;-82
2021/08/29 09:03:38;;;;;;;3.05;1.17;;;;;;;16.04;100.00;101562.22;4956764;28;20043;-82
2021/08/29 09:06:08;;;;;;;1.20;1.10;;;;;;;15.93;100.00;101552.75;4941180;28;20041;-81
2021/08/29 09:08:35;;;;;;;4.75;1.23;;;;;;;15.96;100.00;101555.09;4953470;28;20488;-80
2021/08/29 09:11:01;;;;;;;0.90;0.90;;;;;;;16.13;100.00;101555.94;4975077;28;20038;-81
2021/08/29 09:13:26;;;;;;;2.28;1.10;;;;;;;16.25;100.00;101548.50;4959704;28;20034;-82
2021/08/29 09:16:11;;;;;;;1.85;1.13;;;;;;;16.43;100.00;101556.31;4976194;28;20081;-83
2021/08/29 09:18:47;;;;;;;5.13;1.10;;;;;;;16.43;100.00;101553.66;4968860;28;20052;-81
2021/08/29 09:21:36;;;;;;;1.83;1.10;;;;;;;16.52;100.00;101560.63;4957420;28;20108;-79
2021/08/29 09:24:15;;;;;;;2.40;1.27;;;;;;;16.71;100.00;101561.28;4958134;28;20042;-80
2021/08/29 09:27:01;;;;;;;1.00;0.85;;;;;;;16.83;100.00;101559.94;4958425;28;20596;-80
2021/08/29 09:29:42;;;;;;;1.40;1.00;;;;;;;16.79;100.00;101555.97;4976678;28;20027;-81
2021/08/29 09:32:10;;;;;;;3.35;0.90;;;;;;;16.76;100.00;101563.41;4968529;28;20041;-79
2021/08/29 09:34:59;;;;;;;0.80;0.80;;;;;;;16.59;100.00;101574.00;4957307;28;20094;-80
2021/08/29 09:37:37;;;;;;;0.60;0.55;;;;;;;16.56;100.00;101561.13;4944266;28;20428;-81
2021/08/29 09:40:19;;;;;;;0.50;0.50;;;;;;;16.59;100.00;101573.19;4955641;28;20073;-81
2021/08/29 09:43:06;;;;;;;0.57;0.57;;;;;;;16.55;100.00;101572.69;4969968;28;20043;-79
2021/08/29 09:45:40;;;;;;;1.20;0.70;;;;;;;16.54;100.00;101589.59;4960582;28;20038;-81
2021/08/29 09:48:26;;;;;;;1.85;0.60;;;;;;;16.36;100.00;101576.50;4991253;28;20414;-81
2021/08/29 09:51:14;;;;;;;0.60;0.60;;;;;;;16.34;100.00;101576.66;4971545;28;20030;-81
2021/08/29 09:53:54;;;;;;;0.82;0.50;;;;;;;16.41;100.00;101570.72;4959425;28;20053;-81
2021/08/29 09:56:50;;;;;;;0.90;0.60;;;;;;;16.44;100.00;101576.47;4979504;28;20091;-82
2021/08/29 09:59:47;;;;;;;0.90;0.60;;;;;;;16.54;100.00;101571.88;4966961;28;20108;-82
2021/08/29 10:02:38;;;;;;;1.95;0.52;;;;;;;16.83;100.00;101569.72;4972399;28;20275;-83
2021/08/29 10:05:19;;;;;;;0.60;0.40;;;;;;;17.00;100.00;101571.34;4959762;28;20054;-80
2021/08/29 10:08:04;;;;;;;0.77;0.47;;;;;;;17.05;100.00;101566.38;4944628;28;20034;-82
2021/08/29 10:10:37;;;;;;;2.25;0.57;;;;;;;16.93;100.00;101571.22;4945955;28;20089;-83
2021/08/29 10:13:07;;;;;;;0.93;0.40;;;;;;;16.85;100.00;101578.34;4956799;28;20125;-82
2021/08/29 10:15:34;;;;;;;1.98;0.50;;;;;;;16.84;100.00;101566.06;4990920;28;20030;-82
2021/08/29 10:18:31;;;;;;;0.68;0.60;;;;;;;16.86;100.00;101562.28;4966742;28;20065;-82
2021/08/29 10:21:27;;;;;;;0.80;0.80;;;;;;;16.83;100.00;101572.38;4957708;28;20118;-82
2021/08/29 10:23:57;;;;;;;0.98;0.70;;;;;;;16.79;100.00;101573.69;4963186;28;20101;-82
2021/08/29 10:26:24;;;;;;;2.58;1.30;;;;;;;16.70;100.00;101564.91;4945536;28;20034;-81
2021/08/29 10:29:01;;;;;;;;;;;;;;;16.69;100.00;101579.16;4960668;28;20030;-80
2021/08/29 10:31:53;;;;;;;2.75;2.10;;;;;;;16.96;100.00;101566.56;4988579;28;19920;-80
2021/08/29 10:34:22;;;;;;;3.03;2.40;;;;;;;17.20;100.00;101557.75;4977942;28;20034;-81
2021/08/29 10:36:49;;;;;;;3.97;2.35;;;;;;;17.22;100.00;101559.22;4961820;28;20089;-81
2021/08/29 10:39:34;;;;;;;3.30;2.45;;;;;;;17.17;100.00;101568.69;4995438;28;20041;-79
2021/08/29 10:42:23;;;;;;;5.72;2.80;;;;;;;17.09;100.00;101569.53;4997147;28;20048;-84
2021/08/29 10:45:09;;;;;;;3.88;3.08;;;;;;;16.95;100.00;101562.25;4996306;28;20042;-84
2021/08/29 10:47:54;;;;;;;2.63;2.42;;;;;;;16.68;100.00;101566.91;4980380;28;20099;-83
2021/08/29 10:50:39;;;;;;;3.53;2.65;;;;;;;16.65;100.00;101573.38;5008971;28;20058;-83
2021/08/29 10:53:35;;;;;;;4.00;2.70;;;;;;;16.59;100.00;101576.66;4978486;28;20065;-84
2021/08/29 10:56:19;;;;;;;4.40;3.10;;;;;;;16.58;100.00;101574.19;4964343;28;20520;-84
2021/08/29 10:59:09;;;;;;;4.40;2.60;;;;;;;16.51;100.00;101576.66;4979236;28;20497;-83
2021/08/29 11:01:44;;;;;;;3.28;2.97;;;;;;;16.66;100.00;101576.84;4968477;28;20141;-85
2021/08/29 11:04:36;;;;;;;4.25;3.22;;;;;;;16.87;100.00;101582.47;4978733;28;20038;-84
2021/08/29 11:07:06;;;;;;;3.83;3.03;;;;;;;16.88;100.00;101578.00;4961174;28;20058;-81
2021/08/29 11:09:40;;;;;;;4.03;3.10;;;;;;;16.83;100.00;101590.94;4977700;28;20056;-85
2021/08/29 11:12:13;;;;;;;3.78;3.33;;;;;;;16.73;100.00;101597.19;4978531;28;20042;-84
2021/08/29 11:14:48;;;;;;;3.80;3.50;;;;;;;16.63;100.00;101596.53;4945270;28;20133;-84
2021/08/29 11:17:17;;;;;;;5.50;3.58;;;;;;;16.71;100.00;101598.38;4981118;28;20157;-85
2021/08/29 11:20:02;;;;;;;7.50;4.10;;;;;;;16.64;100.00;101608.78;4971139;28;20137;-84
2021/08/29 11:22:48;;;;;;;4.28;3.65;;;;;;;16.65;100.00;101612.25;4994673;28;20117;-83
2021/08/29 11:25:42;;;;;;;6.75;4.03;;;;;;;16.67;100.00;101597.00;4903379;28;20059;-82
2021/08/29 11:28:37;;;;;;;7.32;3.45;;;;;;;16.74;100.00;101605.97;4958438;28;20091;-83
2021/08/29 11:31:53;;;;;;;3.95;3.50;;;;;;;16.80;100.00;101610.63;4978209;28;20038;-84
2021/08/29 11:34:22;;;;;;;5.32;3.72;;;;;;;16.76;100.00;101605.81;4959740;28;20069;-84
2021/08/29 11:36:50;;;;;;;8.02;3.65;;;;;;;16.74;100.00;101608.59;4946148;28;20037;-84
2021/08/29 11:39:33;;;;;;;7.72;4.05;;;;;;;16.87;100.00;101608.16;4993987;28;20507;-84
2021/08/29 11:42:18;;;;;;;7.72;4.03;;;;;;;16.90;100.00;101606.00;4959430;28;20055;-82
2021/08/29 11:44:48;;;;;;;5.38;3.92;;;;;;;17.02;100.00;101603.81;4950477;28;20485;-84
2021/08/29 11:47:14;;;;;;;7.40;4.15;;;;;;;17.10;100.00;101597.66;4976645;28;20026;-82